Time;durP1;ratioP1;P1;durP2;ratioP2;P2;SDS_P1;SDS_P2;PMS_P1;PMS_P2;Temp;Humidity;BMP_temperature;BMP_pressure;BME280_temperature;BME280_humidity;BME280_pressure;Samples;Min_cycle;Max_cycle;Signal;HPM_P1;HPM_P2
2021/11/23 00:00:33;;;;;;;27.35;11.18;;;;;;;-1.45;100.00;103175.13;6132297;23;20511;-84
2021/11/23 00:02:59;;;;;;;22.23;9.27;;;;;;;-1.43;100.00;103170.66;6131498;23;20433;-84
2021/11/23 00:05:26;;;;;;;15.77;7.13;;;;;;;-1.44;100.00;103169.78;6156673;23;20028;-83
2021/11/23 00:07:51;;;;;;;16.25;6.90;;;;;;;-1.50;100.00;103169.09;6132997;23;20035;-84
2021/11/23 00:10:17;;;;;;;14.23;6.05;;;;;;;-1.55;100.00;103170.06;6131437;23;20441;-83
2021/11/23 00:12:43;;;;;;;17.88;5.85;;;;;;;-1.59;100.00;103162.25;6182629;23;20386;-85
2021/11/23 00:15:09;;;;;;;19.05;7.10;;;;;;;-1.62;100.00;103165.81;6130302;23;20064;-86
2021/11/23 00:17:34;;;;;;;13.52;6.68;;;;;;;-1.70;100.00;103164.28;6155803;23;20467;-84
2021/11/23 00:20:00;;;;;;;12.00;5.88;;;;;;;-1.64;100.00;103174.69;6107617;23;20055;-84
2021/11/23 00:22:26;;;;;;;16.13;6.45;;;;;;;-1.62;100.00;103171.09;6132249;23;20009;-85
2021/11/23 00:24:52;;;;;;;14.07;5.97;;;;;;;-1.60;100.00;103173.72;6156354;23;20005;-83
2021/11/23 00:27:17;;;;;;;17.50;7.20;;;;;;;-1.59;100.00;103170.16;6131405;23;20016;-84
2021/11/23 00:29:43;;;;;;;18.17;7.82;;;;;;;-1.61;100.00;103164.09;6156596;23;20092;-83
2021/11/23 00:32:09;;;;;;;15.52;7.40;;;;;;;-1.62;100.00;103171.09;6107141;23;20040;-84
2021/11/23 00:34:34;;;;;;;17.25;7.18;;;;;;;-1.61;100.00;103161.44;6107200;23;20005;-84
2021/11/23 00:37:00;;;;;;;21.13;7.45;;;;;;;-1.57;100.00;103163.09;6130872;23;20024;-85
2021/11/23 00:39:26;;;;;;;16.00;6.55;;;;;;;-1.53;100.00;103167.41;6156309;23;20005;-85
2021/11/23 00:41:52;;;;;;;19.20;6.50;;;;;;;-1.55;100.00;103167.41;6131057;23;20011;-84
2021/11/23 00:44:19;;;;;;;16.40;7.80;;;;;;;-1.55;100.00;103166.56;6132227;23;20071;-84
2021/11/23 00:46:45;;;;;;;16.98;7.45;;;;;;;-1.55;100.00;103166.56;6106676;23;20008;-84
2021/11/23 00:49:12;;;;;;;14.27;6.15;;;;;;;-1.56;100.00;103176.25;6156010;23;20036;-84
2021/11/23 00:51:38;;;;;;;16.25;6.63;;;;;;;-1.57;100.00;103173.63;6131401;23;20044;-83
2021/11/23 00:54:04;;;;;;;15.13;6.97;;;;;;;-1.57;100.00;103176.28;6180963;23;20009;-83
2021/11/23 00:56:29;;;;;;;18.35;7.43;;;;;;;-1.57;100.00;103185.06;6182251;23;20004;-84
2021/11/23 00:58:55;;;;;;;16.85;8.05;;;;;;;-1.61;100.00;103172.00;6155812;23;20012;-82
2021/11/23 01:01:21;;;;;;;14.88;6.18;;;;;;;-1.65;100.00;103171.19;6131439;23;20369;-84
2021/11/23 01:03:47;;;;;;;13.38;5.55;;;;;;;-1.70;100.00;103173.06;6108434;23;20144;-85
2021/11/23 01:06:13;;;;;;;16.20;5.93;;;;;;;-1.70;100.00;103174.84;6156631;23;20088;-83
2021/11/23 01:08:41;;;;;;;12.60;5.25;;;;;;;-1.80;100.00;103159.25;6106986;23;20024;-84
2021/11/23 01:11:12;;;;;;;18.48;6.22;;;;;;;-1.82;100.00;103162.84;6131299;23;20005;-85
2021/11/23 01:13:38;;;;;;;22.83;7.78;;;;;;;-1.84;100.00;103165.50;6107078;23;20033;-83
2021/11/23 01:16:05;;;;;;;15.05;6.32;;;;;;;-1.92;100.00;103167.44;6182874;23;20015;-85
2021/11/23 01:18:34;;;;;;;15.23;6.20;;;;;;;-1.92;100.00;103179.78;6131783;23;20455;-83
2021/11/23 01:21:00;;;;;;;8.75;4.68;;;;;;;-1.91;100.00;103174.44;6157452;23;20052;-83
2021/11/23 01:23:26;;;;;;;13.80;5.38;;;;;;;-1.89;100.00;103167.38;6107437;23;20013;-84
2021/11/23 01:25:53;;;;;;;14.50;5.30;;;;;;;-1.90;100.00;103167.44;6156330;23;20017;-86
2021/11/23 01:28:19;;;;;;;16.05;5.20;;;;;;;-1.94;100.00;103163.97;6107539;23;20001;-84
2021/11/23 01:30:45;;;;;;;19.05;5.30;;;;;;;-1.97;100.00;103163.19;6107066;23;20019;-85
2021/11/23 01:33:10;;;;;;;17.88;5.97;;;;;;;-2.00;100.00;103164.13;6155887;23;20009;-86
2021/11/23 01:35:36;;;;;;;14.25;5.95;;;;;;;-2.06;100.00;103157.22;6180806;23;20433;-84
2021/11/23 01:38:02;;;;;;;12.63;5.70;;;;;;;-2.02;100.00;103158.00;6157043;23;20302;-86
2021/11/23 01:40:28;;;;;;;14.25;5.47;;;;;;;-1.99;100.00;103158.78;6131095;23;20429;-84
2021/11/23 01:42:54;;;;;;;8.90;4.40;;;;;;;-2.03;100.00;103156.28;6131224;23;20084;-85
2021/11/23 01:45:31;;;;;;;14.07;5.32;;;;;;;-2.02;100.00;103150.09;6131198;23;20405;-85
2021/11/23 01:47:57;;;;;;;13.95;4.90;;;;;;;-2.03;100.00;103143.09;6155242;23;20017;-84
2021/11/23 01:50:23;;;;;;;11.70;5.13;;;;;;;-2.03;100.00;103143.97;6157264;23;20483;-85
2021/11/23 01:52:48;;;;;;;11.38;5.20;;;;;;;-2.11;100.00;103129.25;6133298;23;20423;-84
2021/11/23 01:55:14;;;;;;;12.75;4.40;;;;;;;-2.08;100.00;103137.94;6157371;23;20013;-84
2021/11/23 01:57:42;;;;;;;10.85;4.35;;;;;;;-2.02;100.00;103139.56;6132392;23;20546;-83
2021/11/23 02:00:09;;;;;;;9.82;3.63;;;;;;;-2.06;100.00;103132.66;6183568;23;20012;-84
2021/11/23 02:02:34;;;;;;;6.82;3.95;;;;;;;-2.06;100.00;103128.22;6132645;23;20463;-83
2021/11/23 02:05:00;;;;;;;11.18;3.75;;;;;;;-2.15;100.00;103123.16;6108655;23;20001;-83
2021/11/23 02:07:26;;;;;;;9.77;4.22;;;;;;;-2.14;100.00;103129.28;6157893;23;20005;-84
2021/11/23 02:09:51;;;;;;;13.32;4.88;;;;;;;-2.14;100.00;103131.91;6132427;23;20044;-85
2021/11/23 02:12:21;;;;;;;11.10;5.10;;;;;;;-2.15;100.00;103127.56;6133119;23;20080;-86
2021/11/23 02:14:47;;;;;;;8.60;4.07;;;;;;;-2.17;100.00;103122.34;6132715;23;20084;-83
2021/11/23 02:17:13;;;;;;;9.00;4.88;;;;;;;-2.17;100.00;103125.00;6157404;23;20006;-85
2021/11/23 02:19:45;;;;;;;17.42;4.88;;;;;;;-2.18;100.00;103122.38;6133035;23;20020;-83
2021/11/23 02:22:10;;;;;;;11.32;4.93;;;;;;;-2.17;100.00;103126.72;6157221;23;20015;-84
2021/11/23 02:24:36;;;;;;;13.25;4.25;;;;;;;-2.18;100.00;103112.69;6157204;23;20032;-85
2021/11/23 02:27:02;;;;;;;8.98;4.53;;;;;;;-2.15;100.00;103117.88;6132750;23;20059;-84
2021/11/23 02:29:27;;;;;;;12.02;4.40;;;;;;;-2.12;100.00;103114.31;6157292;23;20001;-84
2021/11/23 02:31:53;;;;;;;13.60;5.03;;;;;;;-2.20;100.00;103109.22;6183785;23;20505;-83
2021/11/23 02:34:19;;;;;;;9.23;4.55;;;;;;;-2.18;100.00;103117.09;6132844;23;20055;-84
2021/11/23 02:36:44;;;;;;;8.30;4.28;;;;;;;-2.16;100.00;103112.66;6183902;23;20009;-84
2021/11/23 02:39:10;;;;;;;13.95;4.85;;;;;;;-2.14;100.00;103114.38;6132182;23;20368;-84
2021/11/23 02:41:37;;;;;;;9.52;4.32;;;;;;;-2.09;100.00;103106.31;6157067;23;20001;-83
2021/11/23 02:44:03;;;;;;;10.70;4.32;;;;;;;-2.12;100.00;103102.00;6108245;23;20009;-85
2021/11/23 02:46:29;;;;;;;10.85;5.18;;;;;;;-2.07;100.00;103115.06;6132922;23;20092;-85
2021/11/23 02:48:55;;;;;;;14.80;5.35;;;;;;;-2.04;100.00;103112.34;6156826;23;20019;-84
2021/11/23 02:51:20;;;;;;;14.68;4.85;;;;;;;-2.02;100.00;103118.47;6132520;23;20000;-85
2021/11/23 02:53:49;;;;;;;18.55;5.53;;;;;;;-2.03;100.00;103106.19;6132351;23;20004;-83
2021/11/23 02:56:15;;;;;;;17.83;6.00;;;;;;;-2.04;100.00;103115.00;6132502;23;20413;-85
2021/11/23 02:58:46;;;;;;;14.70;4.97;;;;;;;-2.04;100.00;103117.63;6156630;23;20075;-85
2021/11/23 03:01:12;;;;;;;14.55;4.70;;;;;;;-2.02;100.00;103114.06;6133135;23;20007;-85
2021/11/23 03:03:37;;;;;;;10.43;4.30;;;;;;;-2.04;100.00;103113.25;6132579;23;20095;-84
2021/11/23 03:06:03;;;;;;;12.80;4.63;;;;;;;-2.07;100.00;103115.06;6157458;23;20212;-83
2021/11/23 03:08:29;;;;;;;17.42;4.65;;;;;;;-2.04;100.00;103115.00;6132660;23;20021;-85
2021/11/23 03:10:54;;;;;;;9.18;4.03;;;;;;;-1.98;100.00;103120.13;6132242;23;19997;-84
2021/11/23 03:13:20;;;;;;;12.60;5.47;;;;;;;-2.00;100.00;103117.53;6132305;23;20005;-82
2021/11/23 03:15:46;;;;;;;14.52;4.85;;;;;;;-2.06;100.00;103108.91;6131757;23;20519;-84
2021/11/23 03:18:12;;;;;;;10.65;4.60;;;;;;;-2.12;100.00;103104.63;6157052;23;20084;-84
2021/11/23 03:20:39;;;;;;;11.85;4.38;;;;;;;-2.10;100.00;103115.16;6132502;23;20005;-86
2021/11/23 03:23:06;;;;;;;13.77;4.93;;;;;;;-2.18;100.00;103099.50;6156740;23;20016;-84
2021/11/23 03:25:32;;;;;;;10.40;4.78;;;;;;;-2.13;100.00;103102.03;6132128;23;20437;-84
2021/11/23 03:27:57;;;;;;;9.48;4.43;;;;;;;-2.17;100.00;103098.63;6157221;23;20004;-86
2021/11/23 03:30:27;;;;;;;13.88;5.20;;;;;;;-2.15;100.00;103104.69;6107598;23;20005;-84
2021/11/23 03:32:56;;;;;;;8.27;4.38;;;;;;;-2.19;100.00;103108.34;6156859;23;20005;-84
2021/11/23 03:35:23;;;;;;;11.68;4.75;;;;;;;-2.23;100.00;103115.41;6157066;23;20001;-84
2021/11/23 03:37:51;;;;;;;13.55;4.93;;;;;;;-2.26;100.00;103110.22;6156413;23;20588;-84
2021/11/23 03:40:18;;;;;;;11.40;4.82;;;;;;;-2.37;100.00;103096.44;6156017;23;20095;-85
2021/11/23 03:42:44;;;;;;;13.27;4.72;;;;;;;-2.31;100.00;103116.50;6106866;23;20012;-85
2021/11/23 03:45:10;;;;;;;13.10;5.43;;;;;;;-2.34;100.00;103114.81;6130540;23;20009;-83
2021/11/23 03:47:36;;;;;;;18.65;5.97;;;;;;;-2.36;100.00;103111.34;6131959;23;20009;-84
2021/11/23 03:50:05;;;;;;;13.18;5.38;;;;;;;-2.42;100.00;103098.31;6108136;23;20035;-84
2021/11/23 03:52:30;;;;;;;14.48;5.57;;;;;;;-2.36;100.00;103111.34;6156962;23;20008;-84
2021/11/23 03:54:56;;;;;;;12.98;5.32;;;;;;;-2.35;100.00;103113.09;6132631;23;20009;-84
2021/11/23 03:57:22;;;;;;;12.10;5.78;;;;;;;-2.32;100.00;103114.78;6131992;23;20091;-83
2021/11/23 03:59:49;;;;;;;15.55;5.97;;;;;;;-2.34;100.00;103112.19;6156803;23;20079;-85
2021/11/23 04:02:16;;;;;;;15.30;5.90;;;;;;;-2.34;100.00;103109.53;6156555;23;20012;-85
2021/11/23 04:04:42;;;;;;;16.85;6.68;;;;;;;-2.37;100.00;103101.72;6132160;23;20189;-84
2021/11/23 04:07:08;;;;;;;14.32;5.13;;;;;;;-2.34;100.00;103106.03;6157016;23;20022;-85
2021/11/23 04:09:34;;;;;;;15.90;5.75;;;;;;;-2.35;100.00;103106.97;6156095;23;20017;-84
2021/11/23 04:11:59;;;;;;;18.38;5.90;;;;;;;-2.33;100.00;103108.66;6132205;23;20008;-86
2021/11/23 04:14:25;;;;;;;14.77;6.13;;;;;;;-2.39;100.00;103100.88;6156720;23;20005;-85
2021/11/23 04:16:51;;;;;;;13.45;5.38;;;;;;;-2.36;100.00;103107.84;6107501;23;20008;-84
2021/11/23 04:19:16;;;;;;;18.90;6.00;;;;;;;-2.34;100.00;103106.91;6156093;23;20012;-83
2021/11/23 04:21:42;;;;;;;12.00;5.10;;;;;;;-2.36;100.00;103111.34;6108128;23;20012;-84
2021/11/23 04:24:08;;;;;;;11.35;4.88;;;;;;;-2.41;100.00;103105.28;6157274;23;20005;-84
2021/11/23 04:26:34;;;;;;;9.38;4.70;;;;;;;-2.40;100.00;103107.06;6131376;23;20410;-83
2021/11/23 04:28:59;;;;;;;12.55;4.35;;;;;;;-2.41;100.00;103107.06;6132150;23;20009;-84
2021/11/23 04:31:25;;;;;;;12.13;4.60;;;;;;;-2.44;100.00;103111.50;6107622;23;20012;-85
2021/11/23 04:33:51;;;;;;;20.25;5.43;;;;;;;-2.48;100.00;103106.34;6156577;23;20092;-85
2021/11/23 04:36:17;;;;;;;12.27;5.40;;;;;;;-2.45;100.00;103116.81;6131452;23;20582;-85
2021/11/23 04:38:42;;;;;;;11.52;4.03;;;;;;;-2.41;100.00;103107.94;6156333;23;20005;-85
2021/11/23 04:41:08;;;;;;;12.15;5.35;;;;;;;-2.44;100.00;103102.75;6131976;23;20451;-84
2021/11/23 04:43:34;;;;;;;8.93;4.68;;;;;;;-2.44;100.00;103105.38;6156320;23;20007;-84
2021/11/23 04:45:59;;;;;;;11.73;4.85;;;;;;;-2.39;100.00;103105.28;6131394;23;20008;-85
2021/11/23 04:48:26;;;;;;;12.45;3.90;;;;;;;-2.40;100.00;103107.06;6155588;23;20024;-85
2021/11/23 04:50:51;;;;;;;7.38;3.58;;;;;;;-2.43;100.00;103109.75;6155918;23;20023;-85
2021/11/23 04:53:17;;;;;;;7.80;3.63;;;;;;;-2.46;100.00;103104.53;6131437;23;20036;-85
2021/11/23 04:55:43;;;;;;;11.52;4.30;;;;;;;-2.50;100.00;103093.22;6182384;23;19997;-84
2021/11/23 04:58:08;;;;;;;10.73;4.57;;;;;;;-2.52;100.00;103104.69;6156131;23;20004;-85
2021/11/23 05:00:34;;;;;;;11.45;4.38;;;;;;;-2.59;100.00;103093.44;6156346;23;20063;-84
2021/11/23 05:03:00;;;;;;;10.82;4.40;;;;;;;-2.64;100.00;103092.66;6131360;23;20083;-84
2021/11/23 05:05:26;;;;;;;9.57;4.07;;;;;;;-2.67;100.00;103093.59;6156030;23;20001;-84
2021/11/23 05:07:51;;;;;;;12.98;5.53;;;;;;;-2.74;100.00;103084.06;6155791;23;20036;-84
2021/11/23 05:10:17;;;;;;;7.63;3.88;;;;;;;-2.74;100.00;103093.75;6155498;23;20192;-85
2021/11/23 05:12:43;;;;;;;13.00;5.22;;;;;;;-2.76;100.00;103085.00;6107014;23;20009;-85
2021/11/23 05:15:09;;;;;;;11.15;4.53;;;;;;;-2.73;100.00;103088.44;6182098;23;20001;-83
2021/11/23 05:17:36;;;;;;;9.88;4.18;;;;;;;-2.75;100.00;103074.47;6106656;23;20421;-86
2021/11/23 05:20:02;;;;;;;9.02;3.92;;;;;;;-2.74;100.00;103077.94;6106999;23;20016;-85
2021/11/23 05:22:28;;;;;;;10.88;5.03;;;;;;;-2.71;100.00;103094.53;6131314;23;20023;-85
2021/11/23 05:24:53;;;;;;;11.18;4.28;;;;;;;-2.71;100.00;103085.78;6155588;23;19993;-85
2021/11/23 05:27:19;;;;;;;8.55;3.70;;;;;;;-2.70;100.00;103083.13;6131351;23;20001;-84
2021/11/23 05:29:45;;;;;;;10.63;4.15;;;;;;;-2.75;100.00;103066.56;6131225;23;20001;-84
2021/11/23 05:32:10;;;;;;;8.32;3.97;;;;;;;-2.70;100.00;103082.22;6130986;23;20024;-84
2021/11/23 05:34:36;;;;;;;9.32;3.83;;;;;;;-2.69;100.00;103084.00;6131399;23;20005;-88
2021/11/23 05:37:02;;;;;;;10.45;4.40;;;;;;;-2.62;100.00;103082.97;6131325;23;20020;-85
2021/11/23 05:39:27;;;;;;;12.07;4.72;;;;;;;-2.60;100.00;103082.91;6155493;23;20373;-84
2021/11/23 05:41:53;;;;;;;8.45;4.18;;;;;;;-2.56;100.00;103087.22;6155421;23;20007;-84
2021/11/23 05:44:19;;;;;;;12.15;4.97;;;;;;;-2.57;100.00;103088.09;6155304;23;20090;-86
2021/11/23 05:46:45;;;;;;;15.35;5.18;;;;;;;-2.51;100.00;103094.13;6155537;23;20028;-85
2021/11/23 05:49:11;;;;;;;11.38;4.40;;;;;;;-2.42;100.00;103092.19;6130960;23;20040;-84
2021/11/23 05:51:36;;;;;;;11.18;4.32;;;;;;;-2.39;100.00;103082.44;6155577;23;20417;-83
2021/11/23 05:54:02;;;;;;;11.00;5.10;;;;;;;-2.32;100.00;103076.13;6156022;23;20005;-85
2021/11/23 05:56:28;;;;;;;14.07;6.38;;;;;;;-2.29;100.00;103078.69;6155920;23;20428;-86
2021/11/23 05:58:54;;;;;;;16.50;4.63;;;;;;;-2.28;100.00;103077.75;6155565;23;20005;-86
2021/11/23 06:01:20;;;;;;;11.82;4.68;;;;;;;-2.24;100.00;103086.50;6130727;23;20005;-85
2021/11/23 06:03:45;;;;;;;12.65;5.90;;;;;;;-2.22;100.00;103080.28;6155305;23;20302;-85
2021/11/23 06:06:11;;;;;;;13.13;5.03;;;;;;;-2.16;100.00;103083.66;6156130;23;20051;-87
2021/11/23 06:08:37;;;;;;;13.07;5.38;;;;;;;-2.08;100.00;103087.00;6130767;23;20449;-84
2021/11/23 06:11:03;;;;;;;10.18;4.22;;;;;;;-2.10;100.00;103073.84;6131064;23;20005;-84
2021/11/23 06:13:29;;;;;;;11.25;4.85;;;;;;;-2.00;100.00;103080.63;6131008;23;20001;-85
2021/11/23 06:15:55;;;;;;;11.57;4.70;;;;;;;-1.97;100.00;103086.72;6155501;23;20012;-85
2021/11/23 06:18:23;;;;;;;10.82;4.28;;;;;;;-2.03;100.00;103069.28;6181944;23;20032;-85
2021/11/23 06:20:51;;;;;;;11.85;4.22;;;;;;;-1.98;100.00;103080.59;6155526;23;20009;-84
2021/11/23 06:23:18;;;;;;;10.52;4.70;;;;;;;-2.00;100.00;103074.47;6155619;23;20448;-85
2021/11/23 06:25:50;;;;;;;10.82;5.03;;;;;;;-1.96;100.00;103076.13;6130493;23;20341;-84
2021/11/23 06:28:18;;;;;;;9.15;4.15;;;;;;;-1.95;100.00;103083.16;6106732;23;20005;-85
2021/11/23 06:30:47;;;;;;;10.73;3.80;;;;;;;-2.04;100.00;103057.00;6106485;23;20012;-84
2021/11/23 06:33:16;;;;;;;8.50;3.80;;;;;;;-1.91;100.00;103076.03;6155623;23;20005;-84
2021/11/23 06:35:42;;;;;;;11.27;4.65;;;;;;;-1.87;100.00;103080.31;6107431;23;20013;-84
2021/11/23 06:38:09;;;;;;;8.60;4.18;;;;;;;-1.83;100.00;103072.28;6157095;23;20008;-85
2021/11/23 06:40:37;;;;;;;11.88;4.72;;;;;;;-1.77;100.00;103068.66;6132922;23;20063;-85
2021/11/23 06:43:06;;;;;;;11.73;4.80;;;;;;;-1.75;100.00;103064.16;6108832;23;20008;-86
2021/11/23 06:45:32;;;;;;;11.45;5.25;;;;;;;-1.72;100.00;103072.03;6108100;23;20013;-84
2021/11/23 06:47:58;;;;;;;8.13;3.95;;;;;;;-1.69;100.00;103078.97;6132615;23;20005;-85
2021/11/23 06:50:24;;;;;;;8.30;4.28;;;;;;;-1.68;100.00;103064.91;6132583;23;20075;-84
2021/11/23 06:52:50;;;;;;;11.10;5.13;;;;;;;-1.62;100.00;103075.28;6132632;23;20377;-84
2021/11/23 06:55:15;;;;;;;10.30;3.97;;;;;;;-1.56;100.00;103080.41;6183571;23;20024;-84
2021/11/23 06:57:41;;;;;;;7.53;3.80;;;;;;;-1.59;100.00;103062.88;6132866;23;20336;-85
2021/11/23 07:00:09;;;;;;;12.27;4.78;;;;;;;-1.49;100.00;103067.91;6157265;23;20441;-86
2021/11/23 07:02:35;;;;;;;6.30;3.03;;;;;;;-1.50;100.00;103068.81;6107748;23;20012;-84
2021/11/23 07:05:01;;;;;;;8.25;3.28;;;;;;;-1.52;100.00;103068.84;6132856;23;20001;-86
2021/11/23 07:07:27;;;;;;;7.50;3.00;;;;;;;-1.57;100.00;103074.25;6156644;23;20012;-86
2021/11/23 07:09:53;;;;;;;6.00;3.00;;;;;;;-1.56;100.00;103072.50;6156932;23;19997;-84
2021/11/23 07:12:18;;;;;;;5.43;2.80;;;;;;;-1.53;100.00;103076.78;6108249;23;20087;-85
2021/11/23 07:14:44;;;;;;;6.20;3.03;;;;;;;-1.54;100.00;103075.94;6157327;23;20005;-84
2021/11/23 07:17:10;;;;;;;5.72;2.47;;;;;;;-1.62;100.00;103070.00;6156417;23;20009;-88
2021/11/23 07:19:36;;;;;;;7.40;3.50;;;;;;;-1.67;100.00;103066.63;6131960;23;20059;-85
2021/11/23 07:22:01;;;;;;;7.20;3.13;;;;;;;-1.62;100.00;103085.81;6156878;23;20024;-84
2021/11/23 07:24:27;;;;;;;10.93;3.50;;;;;;;-1.65;100.00;103083.28;6132018;23;20001;-84
2021/11/23 07:26:54;;;;;;;12.05;4.90;;;;;;;-1.67;100.00;103078.03;6132327;23;20630;-85
2021/11/23 07:29:19;;;;;;;10.00;4.22;;;;;;;-1.71;100.00;103076.38;6156914;23;20009;-85
2021/11/23 07:31:45;;;;;;;11.70;4.97;;;;;;;-1.73;100.00;103078.19;6131982;23;20074;-84
2021/11/23 07:34:11;;;;;;;10.48;4.82;;;;;;;-1.77;100.00;103082.69;6156809;23;20008;-85
2021/11/23 07:36:38;;;;;;;15.60;5.82;;;;;;;-1.80;100.00;103073.97;6156914;23;20265;-87
2021/11/23 07:39:05;;;;;;;18.65;8.05;;;;;;;-1.82;100.00;103084.56;6156848;23;20005;-84
2021/11/23 07:41:30;;;;;;;12.82;6.00;;;;;;;-1.84;100.00;103086.38;6156345;23;20043;-84
2021/11/23 07:43:57;;;;;;;19.42;7.75;;;;;;;-1.84;100.00;103082.88;6157013;23;20009;-85
2021/11/23 07:46:25;;;;;;;18.70;8.98;;;;;;;-1.90;100.00;103072.50;6156459;23;20008;-84
2021/11/23 07:48:51;;;;;;;16.10;7.70;;;;;;;-1.81;100.00;103086.28;6132486;23;20012;-84
2021/11/23 07:51:17;;;;;;;13.02;6.75;;;;;;;-1.83;100.00;103081.97;6131646;23;20013;-86
2021/11/23 07:53:43;;;;;;;15.85;6.97;;;;;;;-1.77;100.00;103093.25;6131912;23;20001;-86
2021/11/23 07:56:10;;;;;;;17.98;8.80;;;;;;;-1.69;100.00;103097.44;6131469;23;20009;-86
2021/11/23 07:58:36;;;;;;;17.90;8.68;;;;;;;-1.70;100.00;103090.44;6107372;23;20087;-85
2021/11/23 08:01:01;;;;;;;18.95;7.50;;;;;;;-1.62;100.00;103094.59;6131965;23;20020;-86
2021/11/23 08:03:27;;;;;;;15.07;7.40;;;;;;;-1.57;100.00;103092.72;6155824;23;20001;-85
2021/11/23 08:05:53;;;;;;;18.58;7.80;;;;;;;-1.50;100.00;103087.28;6155666;23;20005;-85
2021/11/23 08:08:18;;;;;;;25.20;10.90;;;;;;;-1.43;100.00;103089.72;6129872;23;20096;-84
2021/11/23 08:10:44;;;;;;;19.85;9.52;;;;;;;-1.37;100.00;103097.47;6181337;23;20005;-85
2021/11/23 08:13:10;;;;;;;18.80;7.80;;;;;;;-1.37;100.00;103096.63;6155633;23;20009;-84
2021/11/23 08:15:36;;;;;;;18.42;7.80;;;;;;;-1.36;100.00;103096.56;6131616;23;20095;-85
2021/11/23 08:18:04;;;;;;;19.17;8.50;;;;;;;-1.28;100.00;103103.41;6130810;23;20008;-85
2021/11/23 08:20:30;;;;;;;30.42;13.77;;;;;;;-1.23;100.00;103101.50;6131353;23;20013;-85
2021/11/23 08:22:55;;;;;;;39.38;14.35;;;;;;;-1.17;100.00;103104.84;6155162;23;20433;-84
2021/11/23 08:25:21;;;;;;;45.55;16.20;;;;;;;-1.14;100.00;103099.50;6131025;23;20015;-83
2021/11/23 08:27:47;;;;;;;32.10;13.80;;;;;;;-1.06;100.00;103115.09;6155450;23;20012;-84
2021/11/23 08:30:12;;;;;;;38.33;12.73;;;;;;;-1.00;100.00;103119.38;6155839;23;20001;-85
2021/11/23 08:32:38;;;;;;;34.30;12.52;;;;;;;-0.96;100.00;103115.72;6130818;23;20001;-85
2021/11/23 08:35:04;;;;;;;25.95;12.30;;;;;;;-0.92;100.00;103120.00;6106096;23;20517;-85
2021/11/23 08:37:31;;;;;;;28.67;12.77;;;;;;;-0.90;100.00;103111.13;6154967;23;20220;-86
2021/11/23 08:40:00;;;;;;;27.77;14.15;;;;;;;-0.80;100.00;103121.44;6106699;23;20005;-86
2021/11/23 08:42:26;;;;;;;27.75;12.23;;;;;;;-0.78;100.00;103122.25;6130905;23;20072;-86
2021/11/23 08:44:53;;;;;;;27.75;11.80;;;;;;;-0.71;100.00;103122.03;6156015;23;20001;-85
2021/11/23 08:47:21;;;;;;;34.63;14.70;;;;;;;-0.66;100.00;103121.91;6106302;23;20087;-85
2021/11/23 08:49:48;;;;;;;29.08;14.27;;;;;;;-0.58;100.00;103127.81;6130914;23;20005;-83
2021/11/23 08:52:15;;;;;;;30.92;15.98;;;;;;;-0.56;100.00;103119.84;6155208;23;20008;-84
2021/11/23 08:54:40;;;;;;;32.05;14.23;;;;;;;-0.51;100.00;103120.56;6129915;23;20413;-84
2021/11/23 08:57:09;;;;;;;24.55;10.57;;;;;;;-0.45;100.00;103137.13;6106356;23;19997;-85
2021/11/23 08:59:40;;;;;;;19.45;8.70;;;;;;;-0.36;100.00;103140.41;6132673;23;20437;-85
2021/11/23 09:02:06;;;;;;;19.02;8.57;;;;;;;-0.33;100.00;103138.50;6131807;23;20063;-87
2021/11/23 09:04:36;;;;;;;15.68;7.15;;;;;;;-0.30;100.00;103146.34;6155371;23;20033;-85
2021/11/23 09:07:04;;;;;;;14.70;6.38;;;;;;;-0.26;100.00;103141.84;6132202;23;20015;-88
2021/11/23 09:09:34;;;;;;;14.80;7.03;;;;;;;-0.22;100.00;103135.53;6107328;23;20100;-85
2021/11/23 09:12:03;;;;;;;15.23;7.13;;;;;;;-0.15;100.00;103145.03;6156265;23;20070;-88
2021/11/23 09:14:34;;;;;;;18.83;8.98;;;;;;;-0.14;100.00;103146.75;6156666;23;20019;-84
2021/11/23 09:17:00;;;;;;;19.80;9.95;;;;;;;-0.09;100.00;103138.66;6156271;23;20001;-84
2021/11/23 09:19:27;;;;;;;18.20;7.88;;;;;;;-0.14;100.00;103130.88;6107397;23;20012;-87
2021/11/23 09:21:53;;;;;;;21.20;9.60;;;;;;;-0.10;100.00;103145.75;6131880;23;20005;-85
2021/11/23 09:24:20;;;;;;;31.52;13.45;;;;;;;-0.06;100.00;103150.00;6107906;23;20013;-86
2021/11/23 09:26:47;;;;;;;31.67;12.13;;;;;;;-0.05;100.00;103137.69;6156406;23;20017;-88
2021/11/23 09:29:14;;;;;;;40.80;16.60;;;;;;;0.05;100.00;103154.09;6107060;23;20524;-86
2021/11/23 09:31:41;;;;;;;23.42;10.88;;;;;;;0.06;100.00;103154.06;6107361;23;20005;-84
2021/11/23 09:34:06;;;;;;;28.75;11.77;;;;;;;0.07;100.00;103155.78;6132331;23;20366;-89
2021/11/23 09:36:32;;;;;;;31.30;12.95;;;;;;;0.16;100.00;103151.97;6107305;23;20016;-85
2021/11/23 09:38:59;;;;;;;19.55;8.40;;;;;;;0.15;100.00;103147.59;6132392;23;20043;-84
2021/11/23 09:41:25;;;;;;;29.27;13.55;;;;;;;0.20;100.00;103150.97;6131491;23;20075;-86
2021/11/23 09:43:53;;;;;;;23.88;10.73;;;;;;;0.19;100.00;103149.25;6155001;23;20092;-85
2021/11/23 09:46:19;;;;;;;22.52;8.88;;;;;;;0.24;100.00;103154.38;6106269;23;20040;-85
2021/11/23 09:48:47;;;;;;;20.15;8.48;;;;;;;0.16;100.00;103139.63;6156287;23;20032;-85
2021/11/23 09:51:17;;;;;;;17.38;9.35;;;;;;;0.22;100.00;103144.72;6132078;23;20005;-87
2021/11/23 09:53:43;;;;;;;13.63;7.10;;;;;;;0.26;100.00;103150.75;6156687;23;20035;-84
2021/11/23 09:56:10;;;;;;;20.25;8.30;;;;;;;0.25;100.00;103146.38;6131508;23;20422;-85
2021/11/23 09:58:36;;;;;;;21.67;10.52;;;;;;;0.30;100.00;103143.59;6156364;23;20016;-85
2021/11/23 10:01:04;;;;;;;19.63;7.88;;;;;;;0.27;100.00;103141.91;6131729;23;20032;-85
2021/11/23 10:03:32;;;;;;;24.25;10.45;;;;;;;0.25;100.00;103138.44;6156832;23;20036;-86
2021/11/23 10:06:13;;;;;;;25.27;10.73;;;;;;;0.28;100.00;103142.78;6132230;23;20005;-85
2021/11/23 10:08:40;;;;;;;17.48;9.20;;;;;;;0.22;100.00;103130.63;6107889;23;20044;-85
2021/11/23 10:11:07;;;;;;;20.58;8.80;;;;;;;0.41;100.00;103139.66;6108990;23;20084;-85
2021/11/23 10:13:51;;;;;;;19.15;9.05;;;;;;;0.42;100.00;103143.16;6133831;23;20429;-82
2021/11/23 10:16:20;;;;;;;11.68;6.22;;;;;;;0.38;100.00;103137.13;6108138;23;20005;-86
2021/11/23 10:18:50;;;;;;;12.45;7.00;;;;;;;0.42;100.00;103144.06;6133096;23;20005;-84
2021/11/23 10:21:18;;;;;;;19.45;10.15;;;;;;;0.50;100.00;103138.47;6157697;23;20337;-84
2021/11/23 10:23:50;;;;;;;17.35;6.82;;;;;;;0.54;100.00;103147.22;6108674;23;20005;-83
2021/11/23 10:26:30;;;;;;;16.73;7.93;;;;;;;0.52;100.00;103131.34;6158071;23;20005;-84
2021/11/23 10:29:01;;;;;;;14.88;7.47;;;;;;;0.55;100.00;103125.09;6158495;23;20009;-83
2021/11/23 10:31:40;;;;;;;18.83;8.10;;;;;;;0.70;100.00;103131.66;6133298;23;20013;-86
2021/11/23 10:34:18;;;;;;;15.70;8.52;;;;;;;0.79;100.00;103137.47;6157893;23;20008;-84
2021/11/23 10:36:47;;;;;;;15.57;8.90;;;;;;;0.81;100.00;103138.28;6133877;23;20021;-82
2021/11/23 10:39:19;;;;;;;21.63;12.73;;;;;;;0.84;100.00;103132.88;6157820;23;20071;-85
2021/11/23 10:41:51;;;;;;;20.10;11.07;;;;;;;0.92;100.00;103137.06;6133333;23;20005;-83
2021/11/23 10:44:25;;;;;;;20.42;10.68;;;;;;;0.93;100.00;103130.81;6109292;23;20012;-84
2021/11/23 10:47:07;;;;;;;16.58;8.65;;;;;;;0.93;100.00;103128.16;6109600;23;20040;-87
2021/11/23 10:49:36;;;;;;;18.52;8.25;;;;;;;0.97;100.00;103127.16;6133142;23;20098;-86
2021/11/23 10:52:03;;;;;;;14.75;7.75;;;;;;;1.01;100.00;103119.06;6133087;23;20023;-84
2021/11/23 10:54:31;;;;;;;17.15;7.88;;;;;;;1.03;100.00;103113.69;6133154;23;20016;-83
2021/11/23 10:57:02;;;;;;;17.45;9.15;;;;;;;1.13;100.00;103128.31;6157593;23;20071;-83
2021/11/23 10:59:30;;;;;;;15.75;8.63;;;;;;;1.12;100.00;103126.59;6157642;23;20009;-84
2021/11/23 11:01:57;;;;;;;21.30;10.80;;;;;;;1.16;100.00;103120.25;6183947;23;20434;-84
2021/11/23 11:04:25;;;;;;;53.72;20.50;;;;;;;1.24;100.00;103120.84;6183871;23;20008;-83
2021/11/23 11:06:52;;;;;;;84.82;29.20;;;;;;;1.29;100.00;103116.22;6132966;23;20012;-83